Disclaimer

Please do not use the information listed here in-flight or in-navigation, as they are not provided to us by the airports but are provided by volunteers, so they might be outdated.

Search


Regions


Airport information page

Radio informations:
MF - 122.2 MHz
HALIFAX RDO - 126.7 MHz
RDO - 122.2 MHz
GANDER CNTR - 134.6 MHz

Airport informations:
Latitude: 49° 12' 39.00" N
Longitude: 057° 23' 29.00" W
Elevation: 72 feet - 22 meters
Operating hours: N/A
Operating agency: Municipal
Timezone: Second Sunday in March at 0200 to first Sunday in November at 0200 local time (Exception Arizona and that portion of Indiana in the Eastern Time Zone)
Fuel: Jet A1, without icing nhibitor.

100/130 MIL Spec, low lead, aviation gasoline (BLUE)

Runway information:
07/25 - 6000 x 150 feet< - >1829 x 46 meters

Recent METARs:
CYDF 181600Z 27011G19KT 15SM -SN DRSN BKN031 M01/M07 A2992 RMK SC7 SLP133
CYDF 181700Z 27012G19KT 15SM -SN DRSN OVC035 M02/M07 A2995 RMK SC8 SLP143
CYDF 181700Z 27012G19KT 15SM -SN DRSN OVC035 M02/M07 A2995 RMK SC8 SLP143

Airport on the map: